Time;durP1;ratioP1;P1;durP2;ratioP2;P2;SDS_P1;SDS_P2;PMS_P1;PMS_P2;Temp;Humidity;BMP_temperature;BMP_pressure;BME280_temperature;BME280_humidity;BME280_pressure;Samples;Min_cycle;Max_cycle;Signal;HPM_P1;HPM_P2
2022/12/02 00:02:26;;;;;;;4.12;1.70;;;;;;;0.06;51.58;101502.98;1715760;82;21017;-72
2022/12/02 00:05:00;;;;;;;3.70;1.80;;;;;;;0.06;51.67;101502.98;1696427;82;21011;-72
2022/12/02 00:07:27;;;;;;;7.78;1.92;;;;;;;0.04;51.38;101509.52;1705824;83;21014;-71
2022/12/02 00:09:54;;;;;;;4.58;1.70;;;;;;;0.03;51.34;101499.16;1705422;84;22680;-70
2022/12/02 00:12:27;;;;;;;3.90;1.75;;;;;;;0.03;51.43;101499.16;1705532;82;21609;-71
2022/12/02 00:15:00;;;;;;;3.95;1.72;;;;;;;0.04;51.47;101506.92;1706394;82;21019;-71
2022/12/02 00:17:26;;;;;;;;;;;;;;;0.04;51.48;101506.06;1676454;83;21509;-72
2022/12/02 00:19:53;;;;;;;5.40;1.57;;;;;;;0.03;51.50;101502.61;1673155;84;20148;-72
2022/12/02 00:22:21;;;;;;;3.50;1.67;;;;;;;0.01;51.29;101500.48;1666617;85;22149;-72
2022/12/02 00:24:47;;;;;;;6.00;2.22;;;;;;;-0.01;51.36;101505.69;1684841;83;21066;-72
2022/12/02 00:27:15;;;;;;;4.17;2.08;;;;;;;0.00;51.39;101506.58;1714435;83;21531;-72
2022/12/02 00:29:42;;;;;;;5.75;2.20;;;;;;;0.00;51.51;101506.58;1714524;81;21471;-72
2022/12/02 00:32:08;;;;;;;2.70;1.72;;;;;;;0.00;51.70;101502.68;1714445;83;21476;-72
2022/12/02 00:34:34;;;;;;;2.62;1.57;;;;;;;0.01;51.62;101502.23;1765592;81;21898;-72
2022/12/02 00:37:03;;;;;;;3.42;1.62;;;;;;;-0.01;51.61;101505.69;1744343;81;21031;-72
2022/12/02 00:39:29;;;;;;;4.97;1.70;;;;;;;-0.01;51.56;101497.04;1744679;81;20984;-73
2022/12/02 00:41:56;;;;;;;3.20;1.72;;;;;;;-0.02;51.43;101495.33;1767036;81;21035;-72
2022/12/02 00:47:10;;;;;;;3.12;1.45;;;;;;;-0.05;51.32;101488.45;1767096;79;21936;-71
2022/12/02 00:49:37;;;;;;;3.70;1.57;;;;;;;-0.05;51.27;101487.16;1737800;81;20991;-72
2022/12/02 00:52:03;;;;;;;4.12;1.87;;;;;;;-0.06;51.19;101493.24;1766969;81;21040;-72
2022/12/02 00:54:30;;;;;;;3.95;2.00;;;;;;;-0.06;51.25;101489.34;1765539;81;21007;-72
2022/12/02 00:56:57;;;;;;;5.90;1.82;;;;;;;-0.06;51.35;101488.05;1767072;81;21000;-72
2022/12/02 00:59:24;;;;;;;5.60;2.10;;;;;;;-0.06;51.35;101488.05;1765721;79;21912;-72
2022/12/02 01:01:52;;;;;;;5.17;1.90;;;;;;;-0.06;51.42;101489.79;1766974;81;20932;-72
2022/12/02 01:04:20;;;;;;;5.05;1.60;;;;;;;-0.07;51.47;101495.42;1765923;81;20944;-73
2022/12/02 01:06:47;;;;;;;4.35;1.80;;;;;;;-0.09;51.52;101484.22;1763447;79;20988;-72
2022/12/02 01:09:14;;;;;;;3.52;1.60;;;;;;;-0.08;51.54;101485.92;1766229;81;21059;-72
2022/12/02 01:11:41;;;;;;;4.50;1.60;;;;;;;-0.08;51.66;101482.47;1766263;79;21885;-73
2022/12/02 01:14:08;;;;;;;3.80;1.50;;;;;;;-0.09;51.61;101479.02;1766803;79;21059;-71
2022/12/02 01:16:35;;;;;;;3.85;1.60;;;;;;;-0.09;51.42;101485.52;1756825;81;21046;-71
2022/12/02 01:19:03;;;;;;;4.08;1.85;;;;;;;-0.10;51.53;101482.47;1767009;79;21050;-71
2022/12/02 01:21:30;;;;;;;6.80;1.42;;;;;;;-0.10;51.61;101479.88;1766388;81;21316;-71
2022/12/02 01:23:57;;;;;;;4.75;1.70;;;;;;;-0.09;51.50;101475.13;1773189;79;21579;-71
2022/12/02 01:26:24;;;;;;;5.37;1.62;;;;;;;-0.10;51.37;101474.69;1817057;77;21468;-72
2022/12/02 01:28:51;;;;;;;3.58;1.90;;;;;;;-0.11;51.56;101474.27;1848913;77;21093;-71
2022/12/02 01:31:20;;;;;;;6.42;2.58;;;;;;;-0.12;51.58;101473.86;1788645;77;20953;-72
2022/12/02 01:33:48;;;;;;;3.67;1.90;;;;;;;-0.10;51.71;101467.34;1735153;82;20999;-72
2022/12/02 01:36:14;;;;;;;4.12;1.70;;;;;;;-0.10;51.91;101475.98;1750835;80;22398;-72
2022/12/02 01:38:41;;;;;;;7.05;2.00;;;;;;;-0.12;51.88;101470.41;1786021;80;20921;-72
2022/12/02 01:41:08;;;;;;;6.05;1.95;;;;;;;-0.14;51.81;101465.69;1806240;79;21356;-72
2022/12/02 01:43:35;;;;;;;3.17;1.70;;;;;;;-0.15;51.86;101472.62;1795547;77;21541;-72
2022/12/02 01:46:01;;;;;;;2.75;1.55;;;;;;;-0.16;51.84;101469.62;1772298;79;21396;-72
2022/12/02 01:48:28;;;;;;;5.10;2.00;;;;;;;-0.16;51.95;101463.13;1796942;77;22683;-72
2022/12/02 01:50:55;;;;;;;5.33;1.92;;;;;;;-0.17;51.97;101467.05;1815419;79;21433;-71
2022/12/02 01:53:23;;;;;;;3.90;2.00;;;;;;;-0.17;51.93;101469.66;1814008;77;20970;-71
2022/12/02 01:55:49;;;;;;;3.35;1.77;;;;;;;-0.17;51.97;101468.36;1782340;79;21013;-71
2022/12/02 01:58:16;;;;;;;4.35;1.60;;;;;;;-0.16;52.04;101460.97;1782987;79;21009;-74
2022/12/02 02:00:42;;;;;;;3.95;1.60;;;;;;;-0.17;51.87;101465.31;1811734;77;21869;-71
2022/12/02 02:03:08;;;;;;;4.20;1.75;;;;;;;-0.16;51.95;101467.02;1814914;79;21057;-72
2022/12/02 02:05:35;;;;;;;7.17;1.80;;;;;;;-0.16;51.97;101459.23;1779901;79;21380;-72
2022/12/02 02:08:06;;;;;;;3.37;1.90;;;;;;;-0.14;52.09;101462.65;1814255;78;21127;-72
2022/12/02 02:10:33;;;;;;;7.60;2.33;;;;;;;-0.13;52.07;101463.06;1814166;78;21092;-72
2022/12/02 02:13:00;;;;;;;8.93;2.47;;;;;;;-0.10;52.18;101471.23;1814471;79;21709;-72
2022/12/02 02:15:26;;;;;;;7.58;2.12;;;;;;;-0.10;52.22;101470.78;1803918;79;20990;-72
2022/12/02 02:17:55;;;;;;;3.55;1.82;;;;;;;-0.10;52.14;101466.89;1823252;77;20929;-72
2022/12/02 02:20:24;;;;;;;4.83;1.47;;;;;;;-0.10;52.03;101476.42;1814045;78;21100;-71
2022/12/02 02:23:20;;;;;;;4.08;1.90;;;;;;;-0.10;52.02;101463.00;1814888;79;21368;-71
2022/12/02 02:25:50;;;;;;;4.80;1.80;;;;;;;-0.14;51.88;101471.74;1794979;79;21900;-71
2022/12/02 02:28:18;;;;;;;2.92;1.57;;;;;;;-0.14;51.91;101469.14;1736792;81;21116;-71
2022/12/02 02:30:45;;;;;;;6.10;1.60;;;;;;;-0.15;51.83;101475.22;1750774;81;21101;-72
2022/12/02 02:33:13;;;;;;;4.35;1.65;;;;;;;-0.15;52.01;101472.62;1737807;82;21016;-71
2022/12/02 02:35:41;;;;;;;3.50;1.57;;;;;;;-0.14;52.27;101465.69;1731060;80;21088;-71
2022/12/02 02:38:09;;;;;;;4.33;1.92;;;;;;;-0.12;52.32;101467.37;1740190;82;22306;-71
2022/12/02 02:40:37;;;;;;;2.50;1.47;;;;;;;-0.11;52.45;101463.03;1737391;80;20986;-71
2022/12/02 02:43:05;;;;;;;2.75;1.85;;;;;;;-0.10;52.67;101469.48;1739724;81;21054;-71
2022/12/02 02:45:34;;;;;;;4.00;1.72;;;;;;;-0.11;52.86;101467.78;1714421;82;21457;-71
2022/12/02 02:48:03;;;;;;;8.25;1.95;;;;;;;-0.14;52.90;101466.55;1758889;79;21498;-71
2022/12/02 02:50:31;;;;;;;8.05;1.90;;;;;;;-0.17;52.99;101463.16;1734601;81;21938;-71
2022/12/02 02:52:58;;;;;;;3.87;1.82;;;;;;;-0.21;53.17;101461.04;1725271;80;20980;-71
2022/12/02 02:55:25;;;;;;;3.40;2.02;;;;;;;-0.21;53.27;101462.34;1695082;82;21052;-71
2022/12/02 02:57:52;;;;;;;5.53;2.10;;;;;;;-0.20;53.44;101457.55;1734909;80;21027;-71
2022/12/02 03:00:21;;;;;;;3.45;1.90;;;;;;;-0.22;53.34;101460.63;1759044;79;21061;-71
2022/12/02 03:02:53;;;;;;;3.40;1.82;;;;;;;-0.22;53.41;101460.63;1718305;80;22532;-71
2022/12/02 03:05:20;;;;;;;4.83;1.87;;;;;;;-0.22;53.22;101454.14;1763581;81;21012;-72
2022/12/02 03:07:47;;;;;;;5.42;2.30;;;;;;;-0.21;53.12;101451.95;1762925;81;21001;-71
2022/12/02 03:10:13;;;;;;;5.05;1.90;;;;;;;-0.21;52.99;101454.55;1747111;80;20942;-72
2022/12/02 03:12:40;;;;;;;7.35;1.92;;;;;;;-0.21;53.16;101450.66;1743794;81;20949;-70
2022/12/02 03:15:07;;;;;;;3.67;2.00;;;;;;;-0.21;53.09;101451.95;1764255;81;21814;-73
2022/12/02 03:17:33;;;;;;;3.98;2.05;;;;;;;-0.22;53.21;101451.54;1733821;81;21037;-71
2022/12/02 03:20:00;;;;;;;4.25;2.27;;;;;;;-0.22;53.31;101454.14;1765504;81;20934;-72
2022/12/02 03:22:26;;;;;;;4.12;2.10;;;;;;;-0.22;53.21;101456.73;1764591;81;21145;-70
2022/12/02 03:24:53;;;;;;;4.72;1.72;;;;;;;-0.23;53.31;101449.83;1765514;81;20945;-71
2022/12/02 03:27:19;;;;;;;2.65;1.77;;;;;;;-0.23;53.34;101450.27;1768943;80;21824;-73
2022/12/02 03:29:46;;;;;;;4.37;2.22;;;;;;;-0.22;53.40;101448.09;1763594;81;21479;-71
2022/12/02 03:32:12;;;;;;;3.98;2.10;;;;;;;-0.22;53.50;101446.79;1769818;81;21418;-71
2022/12/02 03:34:39;;;;;;;5.60;2.30;;;;;;;-0.22;53.56;101449.39;1736141;80;20996;-71
2022/12/02 03:37:06;;;;;;;3.33;2.12;;;;;;;-0.24;53.33;101452.45;1700286;80;21061;-74
2022/12/02 03:39:33;;;;;;;4.28;1.98;;;;;;;-0.25;53.32;101450.30;1733879;80;21848;-75
2022/12/02 03:41:59;;;;;;;5.55;2.12;;;;;;;-0.28;53.22;101451.67;1811786;77;20819;-74
2022/12/02 03:44:26;;;;;;;3.45;1.85;;;;;;;-0.34;53.28;101450.47;1811482;77;21013;-71
2022/12/02 03:46:52;;;;;;;4.65;2.20;;;;;;;-0.36;53.46;101451.80;1806890;77;21025;-71
2022/12/02 03:49:19;;;;;;;4.15;1.98;;;;;;;-0.39;53.56;101441.88;1810787;79;20966;-72
2022/12/02 03:51:46;;;;;;;4.92;1.95;;;;;;;-0.39;53.58;101447.08;1811536;78;21786;-71
2022/12/02 03:54:12;;;;;;;3.33;1.90;;;;;;;-0.41;53.42;101448.85;1809818;78;20962;-71
2022/12/02 03:56:40;;;;;;;2.60;1.80;;;;;;;-0.43;53.52;101448.02;1784714;78;21474;-71
2022/12/02 03:59:06;;;;;;;3.50;2.12;;;;;;;-0.45;53.56;101437.67;1808969;79;21002;-71
2022/12/02 04:01:33;;;;;;;4.12;2.10;;;;;;;-0.42;53.53;101443.25;1805182;77;20934;-71
2022/12/02 04:03:59;;;;;;;4.17;2.08;;;;;;;-0.43;53.56;101440.23;1811737;79;21741;-73
2022/12/02 04:06:26;;;;;;;3.62;2.27;;;;;;;-0.44;53.77;101452.80;1809655;79;21041;-72
2022/12/02 04:08:53;;;;;;;4.50;2.20;;;;;;;-0.44;53.80;101449.77;1811716;79;20974;-73
2022/12/02 04:11:19;;;;;;;5.35;2.25;;;;;;;-0.42;53.79;101453.63;1811308;78;21021;-72
2022/12/02 04:13:46;;;;;;;4.65;2.60;;;;;;;-0.43;53.79;101450.63;1806336;79;21392;-71
2022/12/02 04:16:12;;;;;;;6.25;2.60;;;;;;;-0.45;53.88;101461.03;1809880;77;22433;-71
2022/12/02 04:18:39;;;;;;;4.65;2.52;;;;;;;-0.43;53.99;101451.92;1801191;78;20994;-71
2022/12/02 04:21:05;;;;;;;4.53;1.75;;;;;;;-0.43;54.02;101454.52;1800591;79;21036;-71
2022/12/02 04:23:31;;;;;;;4.03;2.20;;;;;;;-0.45;53.75;101456.28;1801031;77;21024;-74
2022/12/02 04:25:58;;;;;;;4.72;1.85;;;;;;;-0.49;53.80;101451.56;1813604;77;21480;-71
2022/12/02 04:28:25;;;;;;;3.50;2.17;;;;;;;-0.54;53.81;101465.08;1814070;79;21882;-71
2022/12/02 04:30:51;;;;;;;6.10;2.50;;;;;;;-0.55;53.87;101466.41;1812152;79;21473;-71
2022/12/02 04:33:18;;;;;;;5.05;2.45;;;;;;;-0.57;53.82;101462.98;1814923;77;20962;-71
2022/12/02 04:35:44;;;;;;;5.15;2.25;;;;;;;-0.59;53.99;101465.13;1819995;77;21021;-71
2022/12/02 04:38:11;;;;;;;5.25;2.30;;;;;;;-0.60;53.96;101463.42;1814385;78;21060;-72
2022/12/02 04:40:37;;;;;;;5.75;2.65;;;;;;;-0.59;54.00;101463.84;1811635;79;21939;-71
2022/12/02 04:43:04;;;;;;;3.98;2.30;;;;;;;-0.56;54.07;101462.09;1790780;79;20978;-71
2022/12/02 04:45:30;;;;;;;3.33;2.10;;;;;;;-0.54;54.09;101468.11;1808912;77;20896;-71
2022/12/02 04:47:57;;;;;;;4.50;2.75;;;;;;;-0.55;53.83;101466.41;1791234;77;21482;-70
2022/12/02 04:50:23;;;;;;;4.28;2.17;;;;;;;-0.60;53.88;101464.72;1810293;77;21055;-77
2022/12/02 04:52:51;;;;;;;5.15;2.25;;;;;;;-0.59;53.86;101464.28;1798546;79;22023;-71
2022/12/02 04:55:18;;;;;;;5.25;2.42;;;;;;;-0.57;53.91;101462.55;1809643;77;20978;-72
2022/12/02 04:57:44;;;;;;;4.50;2.17;;;;;;;-0.56;53.75;101464.70;1807455;77;21022;-71
2022/12/02 05:00:14;;;;;;;3.40;2.10;;;;;;;-0.57;53.93;101461.69;1813195;77;20946;-71
2022/12/02 05:02:40;;;;;;;5.12;2.42;;;;;;;-0.58;53.88;101458.20;1813725;77;21305;-71
2022/12/02 05:05:08;;;;;;;3.55;2.20;;;;;;;-0.60;53.96;101463.42;1794190;79;22484;-71
2022/12/02 05:07:35;;;;;;;5.47;2.50;;;;;;;-0.60;53.95;101464.72;1808684;77;20945;-71
2022/12/02 05:10:02;;;;;;;15.15;2.37;;;;;;;-0.59;54.05;101462.54;1811858;77;21436;-71
2022/12/02 05:12:29;;;;;;;7.37;2.40;;;;;;;-0.60;54.10;101461.27;1814394;79;21092;-71
2022/12/02 05:14:56;;;;;;;5.85;2.42;;;;;;;-0.60;54.29;101463.86;1814887;78;21001;-70
2022/12/02 05:17:22;;;;;;;5.15;2.83;;;;;;;-0.61;54.40;101470.80;1807233;77;21913;-74
2022/12/02 05:19:48;;;;;;;4.67;2.65;;;;;;;-0.64;54.38;101469.55;1814260;77;20978;-72
2022/12/02 05:22:16;;;;;;;4.28;2.87;;;;;;;-0.67;54.43;101473.50;1813365;77;21049;-72
2022/12/02 05:24:42;;;;;;;5.70;2.87;;;;;;;-0.67;54.60;101474.80;1813379;77;21349;-72
2022/12/02 05:27:09;;;;;;;4.15;2.40;;;;;;;-0.68;54.61;101473.06;1801179;77;21412;-72
2022/12/02 05:29:35;;;;;;;6.60;2.77;;;;;;;-0.67;54.67;101471.36;1793609;79;22572;-72
2022/12/02 05:32:01;;;;;;;4.28;2.10;;;;;;;-0.68;54.65;101474.36;1797068;79;21361;-72
2022/12/02 05:34:28;;;;;;;7.92;2.58;;;;;;;-0.68;54.74;101474.80;1794320;79;21457;-72
2022/12/02 05:36:55;;;;;;;4.80;2.05;;;;;;;-0.70;54.82;101475.27;1808361;77;21017;-72
2022/12/02 05:39:26;;;;;;;4.75;2.58;;;;;;;-0.72;54.88;101470.11;1768133;79;20950;-72
2022/12/02 05:41:59;;;;;;;4.60;2.60;;;;;;;-0.71;54.92;101470.52;1788389;79;21063;-72
2022/12/02 05:44:28;;;;;;;5.05;2.80;;;;;;;-0.70;54.95;101464.89;1812332;77;21064;-72
2022/12/02 05:47:00;;;;;;;5.03;2.52;;;;;;;-0.71;54.94;101467.92;1816213;77;21049;-72
2022/12/02 05:49:27;;;;;;;6.83;2.52;;;;;;;-0.73;55.07;101465.80;1812207;79;21075;-73
2022/12/02 05:51:57;;;;;;;4.90;2.52;;;;;;;-0.70;55.10;101463.59;1775062;80;21424;-71
2022/12/02 05:54:25;;;;;;;4.70;2.87;;;;;;;-0.68;55.05;101469.17;1805745;77;21885;-72
2022/12/02 05:56:52;;;;;;;10.65;3.08;;;;;;;-0.68;54.87;101471.77;1812428;77;20930;-71
2022/12/02 05:59:21;;;;;;;5.87;2.90;;;;;;;-0.70;54.77;101460.56;1802957;77;20926;-71
2022/12/02 06:01:55;;;;;;;6.75;2.65;;;;;;;-0.69;54.92;101459.67;1821136;77;21044;-72
2022/12/02 06:04:25;;;;;;;4.85;2.90;;;;;;;-0.68;55.17;101462.69;1794357;77;21013;-72
2022/12/02 06:06:53;;;;;;;7.12;2.90;;;;;;;-0.69;55.28;101458.38;1770482;79;21933;-73
2022/12/02 06:09:23;;;;;;;6.70;2.90;;;;;;;-0.68;55.39;101465.72;1806710;77;20934;-74
2022/12/02 06:11:50;;;;;;;4.87;2.80;;;;;;;-0.68;55.40;101462.69;1817861;77;21439;-73
2022/12/02 06:14:21;;;;;;;5.60;2.98;;;;;;;-0.67;55.59;101468.31;1798138;77;21106;-72
2022/12/02 06:17:01;;;;;;;5.00;2.80;;;;;;;-0.66;55.62;101466.13;1815247;77;21075;-73
2022/12/02 06:19:50;;;;;;;5.20;3.20;;;;;;;-0.64;55.85;101464.37;1817188;77;22480;-78
2022/12/02 06:22:26;;;;;;;7.05;3.27;;;;;;;-0.67;55.87;101464.87;1791103;79;21147;-72
2022/12/02 06:24:54;;;;;;;8.50;4.22;;;;;;;-0.67;56.01;101460.97;1812319;77;20998;-73
2022/12/02 06:27:21;;;;;;;7.45;3.90;;;;;;;-0.67;56.13;101463.13;1797156;77;20949;-73
2022/12/02 06:29:58;;;;;;;6.12;3.40;;;;;;;-0.70;56.02;101467.48;1796926;78;21068;-72
2022/12/02 06:32:36;;;;;;;8.93;3.83;;;;;;;-0.70;56.11;101469.64;1797381;78;21879;-72
2022/12/02 06:35:06;;;;;;;5.45;3.12;;;;;;;-0.67;56.15;101466.16;1796158;78;21085;-72
2022/12/02 06:37:33;;;;;;;8.40;3.27;;;;;;;-0.69;56.14;101472.64;1794706;78;20983;-72
2022/12/02 06:40:00;;;;;;;8.45;3.72;;;;;;;-0.68;56.23;101461.83;1789693;78;21006;-73
2022/12/02 06:42:33;;;;;;;8.15;3.35;;;;;;;-0.66;56.25;101470.03;1775650;79;21032;-72
2022/12/02 06:45:07;;;;;;;5.85;3.40;;;;;;;-0.62;56.37;101469.09;1794812;78;21951;-72
2022/12/02 06:47:48;;;;;;;5.55;3.30;;;;;;;-0.60;56.33;101468.61;1787218;79;21107;-73
2022/12/02 06:50:27;;;;;;;10.35;3.37;;;;;;;-0.58;56.28;101473.77;1766759;79;21063;-72
2022/12/02 06:52:59;;;;;;;11.00;3.40;;;;;;;-0.56;56.38;101473.77;1791401;78;21478;-73
2022/12/02 06:55:34;;;;;;;7.62;3.17;;;;;;;-0.54;56.43;101478.49;1803227;78;21058;-75
2022/12/02 06:58:36;;;;;;;6.20;3.40;;;;;;;-0.53;56.34;101478.46;1790659;78;21547;-73
2022/12/02 07:01:23;;;;;;;10.18;3.92;;;;;;;-0.54;56.28;101481.09;1773473;79;21002;-72
2022/12/02 07:04:15;;;;;;;6.75;3.02;;;;;;;-0.51;56.37;101486.22;1786620;78;21014;-73
2022/12/02 07:06:43;;;;;;;8.90;3.65;;;;;;;-0.49;56.47;101476.66;1786702;79;21405;-72
2022/12/02 07:09:31;;;;;;;6.20;3.05;;;;;;;-0.49;56.45;101478.81;1797965;78;21341;-73
2022/12/02 07:11:57;;;;;;;8.40;4.58;;;;;;;-0.48;56.35;101472.77;1798888;79;21925;-72
2022/12/02 07:14:44;;;;;;;8.60;5.22;;;;;;;-0.47;56.31;101485.31;1798701;79;20970;-75
2022/12/02 07:17:35;;;;;;;14.13;4.90;;;;;;;-0.49;56.16;101480.55;1791308;78;21481;-74
2022/12/02 07:20:10;;;;;;;7.20;4.00;;;;;;;-0.48;56.13;101475.78;1782558;78;20971;-74
2022/12/02 07:22:59;;;;;;;4.90;3.33;;;;;;;-0.49;56.15;101484.00;1798159;79;21002;-74
2022/12/02 07:25:48;;;;;;;9.18;3.33;;;;;;;-0.48;56.03;101489.64;1775551;78;21925;-72
2022/12/02 07:28:38;;;;;;;12.90;6.10;;;;;;;-0.47;56.18;101482.71;1763539;80;21499;-73
2022/12/02 07:31:24;;;;;;;11.53;4.60;;;;;;;-0.45;56.27;101482.23;1743295;80;21005;-73
2022/12/02 07:33:51;;;;;;;6.97;3.87;;;;;;;-0.44;56.23;101487.84;1754375;80;21013;-72
2022/12/02 07:36:18;;;;;;;5.75;3.45;;;;;;;-0.42;56.04;101489.52;1755356;80;21005;-72
2022/12/02 07:38:45;;;;;;;11.75;4.00;;;;;;;-0.40;56.07;101489.49;1748781;81;22293;-74
2022/12/02 07:41:14;;;;;;;10.48;3.60;;;;;;;-0.37;56.08;101485.13;1747160;80;20985;-73
2022/12/02 07:43:42;;;;;;;6.83;3.58;;;;;;;-0.35;55.91;101492.44;1743496;80;42676;-72
2022/12/02 07:46:09;;;;;;;22.40;9.23;;;;;;;-0.32;56.02;101501.47;1747154;80;20969;-76
2022/12/02 07:48:36;;;;;;;132.50;94.92;;;;;;;-0.31;55.84;101491.94;1753446;80;21471;-73
2022/12/02 07:51:03;;;;;;;27.15;17.07;;;;;;;-0.30;56.00;101497.09;1754418;80;21802;-71
2022/12/02 07:53:30;;;;;;;18.12;8.05;;;;;;;-0.26;56.25;101491.44;1751469;80;21005;-71
2022/12/02 07:55:57;;;;;;;7.80;4.50;;;;;;;-0.21;56.42;101495.23;1734016;80;21296;-72
2022/12/02 07:58:24;;;;;;;10.53;3.98;;;;;;;-0.17;56.42;101497.77;1746117;80;21111;-72
2022/12/02 08:00:52;;;;;;;8.43;3.85;;;;;;;-0.13;56.38;101502.45;1754920;80;21493;-76
2022/12/02 08:03:18;;;;;;;9.95;5.00;;;;;;;-0.10;56.54;101503.25;1755730;80;21893;-75
2022/12/02 08:05:45;;;;;;;9.60;3.55;;;;;;;-0.07;56.49;101505.81;1745479;80;21060;-74
2022/12/02 08:08:11;;;;;;;6.62;3.90;;;;;;;-0.05;56.47;101505.34;1740447;80;20972;-74
2022/12/02 08:10:38;;;;;;;7.90;3.80;;;;;;;-0.04;56.32;101501.86;1745563;80;21060;-75
2022/12/02 08:13:05;;;;;;;7.08;3.50;;;;;;;-0.08;56.14;101508.00;1745404;80;21013;-74
2022/12/02 08:15:32;;;;;;;9.83;4.00;;;;;;;-0.08;56.33;101510.59;1731273;80;22088;-75
2022/12/02 08:17:59;;;;;;;6.75;3.50;;;;;;;-0.05;56.31;101509.67;1746417;80;20986;-75
2022/12/02 08:20:27;;;;;;;7.62;3.37;;;;;;;-0.04;56.33;101503.16;1755568;80;21049;-76
2022/12/02 08:22:54;;;;;;;6.22;3.30;;;;;;;-0.03;56.25;101502.27;1753973;80;21009;-73
2022/12/02 08:25:20;;;;;;;8.60;3.50;;;;;;;0.00;56.24;101500.08;1752980;80;21587;-74
2022/12/02 08:27:49;;;;;;;6.60;3.62;;;;;;;0.01;56.28;101494.00;1790401;77;21890;-75
2022/12/02 08:30:16;;;;;;;6.45;3.70;;;;;;;0.05;56.23;101499.54;1802753;77;20974;-73
2022/12/02 08:32:44;;;;;;;7.55;3.45;;;;;;;0.09;56.17;101497.73;1802506;78;20859;-75
2022/12/02 08:35:11;;;;;;;9.43;3.40;;;;;;;0.08;55.76;101491.68;1803049;77;20939;-75
2022/12/02 08:37:39;;;;;;;6.03;3.55;;;;;;;0.09;55.79;101493.39;1802089;77;21547;-74
2022/12/02 08:40:07;;;;;;;7.25;4.40;;;;;;;0.12;55.84;101487.30;1792000;77;21540;-74
2022/12/02 08:42:36;;;;;;;8.08;5.00;;;;;;;0.15;55.71;101481.59;1780335;79;21011;-74
2022/12/02 08:45:03;;;;;;;9.20;4.80;;;;;;;0.14;55.59;101482.93;1796192;78;21057;-74
2022/12/02 08:47:30;;;;;;;6.65;3.80;;;;;;;0.13;55.46;101478.63;1804199;77;21064;-75
2022/12/02 08:49:56;;;;;;;5.92;3.70;;;;;;;0.10;55.44;101484.74;1795944;79;20970;-75
2022/12/02 08:52:23;;;;;;;7.83;4.40;;;;;;;0.11;55.40;101476.50;1804899;77;21921;-74
2022/12/02 08:54:52;;;;;;;8.85;5.12;;;;;;;0.06;55.06;101480.47;1803605;79;20919;-74
2022/12/02 08:57:18;;;;;;;6.25;4.37;;;;;;;0.07;55.23;101475.69;1803349;77;21053;-76
2022/12/02 08:59:45;;;;;;;8.55;4.47;;;;;;;0.10;55.12;101469.60;1801653;77;21448;-75
2022/12/02 09:02:11;;;;;;;9.58;4.42;;;;;;;0.13;55.27;101473.42;1794622;77;21049;-74
2022/12/02 09:04:39;;;;;;;8.03;3.60;;;;;;;0.17;55.10;101468.58;1795407;77;21822;-75
2022/12/02 09:07:07;;;;;;;7.60;3.77;;;;;;;0.18;54.73;101468.54;1801175;77;21500;-73
2022/12/02 09:09:34;;;;;;;8.18;3.70;;;;;;;0.22;54.99;101463.72;1809914;78;20930;-72
2022/12/02 09:12:01;;;;;;;12.47;4.33;;;;;;;0.29;55.02;101460.56;1808064;78;21512;-73
2022/12/02 09:14:28;;;;;;;6.87;3.98;;;;;;;0.34;54.56;101461.31;1816647;77;20998;-73
2022/12/02 09:16:55;;;;;;;7.72;3.80;;;;;;;0.34;54.12;101458.72;1805838;77;22371;-71
2022/12/02 09:19:21;;;;;;;6.17;3.55;;;;;;;0.35;54.27;101460.42;1793433;77;22179;-72
2022/12/02 09:21:48;;;;;;;7.22;3.90;;;;;;;0.36;53.67;101450.44;1795824;77;21010;-72
2022/12/02 09:24:15;;;;;;;6.75;3.37;;;;;;;0.35;53.82;101453.92;1794101;77;21051;-71
2022/12/02 09:26:42;;;;;;;5.72;3.30;;;;;;;0.40;53.91;101450.81;1784195;77;21544;-71
2022/12/02 09:29:09;;;;;;;8.75;3.83;;;;;;;0.46;53.98;101453.70;1752677;81;21842;-74
2022/12/02 09:31:35;;;;;;;5.55;3.47;;;;;;;0.51;53.68;101450.59;1747104;81;21036;-72
2022/12/02 09:34:02;;;;;;;6.08;3.67;;;;;;;0.55;53.47;101444.42;1762017;79;20996;-73
2022/12/02 09:36:28;;;;;;;5.40;3.42;;;;;;;0.59;53.28;101466.03;1749076;81;21576;-74
2022/12/02 10:17:21;;;;;;;7.10;3.77;;;;;;;0.67;52.46;101442.00;1694807;83;21063;-77
2022/12/02 10:19:47;;;;;;;9.83;3.83;;;;;;;0.68;52.41;101440.70;1714748;83;21040;-73
2022/12/02 10:22:18;;;;;;;9.08;3.83;;;;;;;0.68;52.48;101443.73;1708136;83;21055;-76
2022/12/02 10:24:45;;;;;;;10.15;3.65;;;;;;;0.71;52.39;101442.36;1711197;83;20936;-72
2022/12/02 10:27:28;;;;;;;8.03;3.83;;;;;;;0.70;52.21;101445.41;1709979;81;23132;-73
2022/12/02 10:30:17;;;;;;;9.00;4.12;;;;;;;0.71;52.32;101444.97;1775897;79;20989;-75
2022/12/02 10:32:58;;;;;;;9.80;4.42;;;;;;;0.74;52.11;101444.44;1763924;79;20988;-70
2022/12/02 10:35:27;;;;;;;9.43;4.28;;;;;;;0.78;52.15;101442.20;1746042;80;21042;-71
2022/12/02 10:37:54;;;;;;;10.90;4.78;;;;;;;0.80;51.97;101445.62;1768883;79;21004;-71
2022/12/02 10:40:23;;;;;;;8.03;4.40;;;;;;;0.82;51.33;101439.08;1775240;79;21972;-69
2022/12/02 10:43:09;;;;;;;6.47;3.80;;;;;;;0.81;51.49;101449.07;1741295;80;20992;-70
2022/12/02 10:45:36;;;;;;;4.90;3.12;;;;;;;0.84;51.61;101438.59;1766557;80;21004;-68
2022/12/02 10:48:15;;;;;;;12.25;3.90;;;;;;;0.85;51.27;101447.66;1774749;79;20953;-71
2022/12/02 10:50:42;;;;;;;7.75;3.77;;;;;;;0.81;50.89;101438.22;1744074;80;20999;-71
2022/12/02 10:53:13;;;;;;;8.00;3.75;;;;;;;0.77;50.48;101444.81;1765750;79;21935;-69
2022/12/02 10:55:41;;;;;;;8.60;3.75;;;;;;;0.75;50.79;101450.50;1760732;80;20965;-72
2022/12/02 10:58:18;;;;;;;6.10;3.65;;;;;;;0.77;50.88;101447.41;1761628;80;20985;-70
2022/12/02 11:00:45;;;;;;;8.58;4.60;;;;;;;0.80;50.95;101443.02;1766696;79;21079;-70
2022/12/02 11:03:12;;;;;;;9.13;4.37;;;;;;;0.80;50.68;101431.77;1763619;80;21076;-72
2022/12/02 11:05:39;;;;;;;8.05;4.17;;;;;;;0.82;50.83;101435.17;1724745;82;22512;-71
2022/12/02 11:08:22;;;;;;;6.33;3.83;;;;;;;0.85;51.04;101437.25;1759704;81;21422;-74
2022/12/02 11:11:09;;;;;;;5.47;3.17;;;;;;;0.90;51.09;101438.91;1714115;83;20980;-74
2022/12/02 11:13:54;;;;;;;12.70;6.95;;;;;;;0.94;50.93;101442.70;1762262;79;21110;-73
2022/12/02 11:16:36;;;;;;;7.55;4.20;;;;;;;0.91;50.82;101446.67;1731255;80;21063;-81
2022/12/02 11:19:14;;;;;;;6.72;3.92;;;;;;;0.88;50.41;101443.30;1763593;79;22531;-76
2022/12/02 11:21:43;;;;;;;12.78;4.45;;;;;;;0.80;50.48;101436.52;1743031;80;20925;-76
2022/12/02 11:24:33;;;;;;;7.67;3.58;;;;;;;0.80;50.70;101439.56;1767317;80;21481;-80
2022/12/02 11:27:05;;;;;;;7.42;3.62;;;;;;;0.80;50.50;101433.92;1785132;78;20934;-73
2022/12/02 11:29:37;;;;;;;4.58;3.12;;;;;;;0.78;50.52;101438.75;1803289;79;20954;-75
2022/12/02 11:32:27;;;;;;;7.80;3.75;;;;;;;0.78;50.59;101441.34;1803134;77;21963;-73
2022/12/02 11:34:56;;;;;;;7.80;3.65;;;;;;;0.77;50.57;101441.80;1780188;79;20927;-74
2022/12/02 11:37:35;;;;;;;7.47;3.70;;;;;;;0.73;50.51;101432.78;1804161;78;20998;-73
2022/12/02 11:40:21;;;;;;;6.70;3.95;;;;;;;0.74;50.78;101442.28;1795484;79;20991;-73
2022/12/02 11:42:51;;;;;;;7.37;4.35;;;;;;;0.77;50.90;101443.09;1789673;77;21394;-72
2022/12/02 11:45:23;;;;;;;9.13;4.28;;;;;;;0.80;51.25;101443.02;1790024;78;22255;-73
2022/12/02 11:47:59;;;;;;;6.30;3.87;;;;;;;0.82;51.32;101441.68;1792027;79;20982;-73
2022/12/02 11:50:38;;;;;;;6.75;3.80;;;;;;;0.86;51.54;101442.01;1783621;77;20998;-76
2022/12/02 11:53:22;;;;;;;8.65;4.22;;;;;;;0.88;51.43;101440.70;1797144;77;21705;-74
2022/12/02 11:55:51;;;;;;;8.75;4.15;;;;;;;0.90;51.38;101436.31;1801500;77;21096;-73
2022/12/02 11:58:31;;;;;;;9.35;3.87;;;;;;;0.90;51.60;101439.77;1797862;78;22608;-73
2022/12/02 12:01:05;;;;;;;7.83;4.05;;;;;;;0.95;51.67;101439.65;1788418;79;20973;-77
2022/12/02 12:03:33;;;;;;;7.03;3.20;;;;;;;0.90;51.32;101436.31;1800442;79;21425;-73
2022/12/02 12:06:10;;;;;;;7.53;3.92;;;;;;;0.86;51.33;101436.80;1804536;77;20983;-75
2022/12/02 12:08:39;;;;;;;7.83;4.75;;;;;;;0.83;51.53;101435.58;1780646;79;21032;-74
2022/12/02 12:11:25;;;;;;;12.28;5.72;;;;;;;0.83;51.56;101442.09;1803091;79;21839;-74
2022/12/02 12:14:03;;;;;;;10.05;4.87;;;;;;;0.78;51.55;101433.10;1784089;79;20973;-73
2022/12/02 12:16:34;;;;;;;16.82;5.50;;;;;;;0.74;51.42;101443.59;1790292;77;21489;-74
2022/12/02 12:19:20;;;;;;;11.30;5.25;;;;;;;0.71;51.78;101439.31;1795745;78;21009;-74
2022/12/02 12:21:53;;;;;;;10.85;5.00;;;;;;;0.71;51.89;101445.82;1760758;79;21008;-74